createdAt,value
2019-05-11T00:00:48.966Z,8.07
2019-05-11T00:03:17.398Z,8.27
2019-05-11T00:05:45.837Z,8.73
2019-05-11T00:08:14.393Z,8.03
2019-05-11T00:10:42.938Z,7.67
2019-05-11T00:13:11.383Z,7.97
2019-05-11T00:15:39.819Z,7.83
2019-05-11T00:18:08.326Z,9.23
2019-05-11T00:20:36.861Z,8.30
2019-05-11T00:23:05.311Z,7.57
2019-05-11T00:25:33.769Z,8.23
2019-05-11T00:28:02.360Z,7.77
2019-05-11T00:30:30.881Z,8.23
2019-05-11T00:32:59.325Z,7.20
2019-05-11T00:35:27.762Z,7.57
2019-05-11T00:37:56.208Z,8.00
2019-05-11T00:40:24.637Z,9.90
2019-05-11T00:42:53.105Z,7.20
2019-05-11T00:45:21.546Z,7.03
2019-05-11T00:47:49.991Z,7.63
2019-05-11T00:50:18.501Z,7.87
2019-05-11T00:52:46.951Z,11.17
2019-05-11T00:55:15.393Z,9.00
2019-05-11T00:57:43.914Z,8.90
2019-05-11T01:00:12.787Z,9.30
2019-05-11T01:02:41.237Z,10.00
2019-05-11T01:05:09.925Z,9.90
2019-05-11T01:07:38.365Z,8.93
2019-05-11T01:10:22.917Z,9.47
2019-05-11T01:12:39.993Z,9.73
2019-05-11T01:15:09.975Z,9.83
2019-05-11T01:17:38.780Z,10.27
2019-05-11T01:20:07.553Z,10.03
2019-05-11T01:22:36.014Z,11.47
2019-05-11T01:25:05.796Z,9.70
2019-05-11T01:27:34.509Z,11.20
2019-05-11T01:30:03.016Z,10.37
2019-05-11T01:32:31.460Z,9.90
2019-05-11T01:35:00.079Z,9.47
2019-05-11T01:37:28.595Z,10.10
2019-05-11T01:39:57.042Z,8.83
2019-05-11T01:42:25.485Z,9.60
2019-05-11T01:44:53.925Z,9.43
2019-05-11T01:47:22.364Z,9.13
2019-05-11T01:49:50.802Z,9.57
2019-05-11T01:52:19.321Z,11.23
2019-05-11T01:54:47.755Z,9.07
2019-05-11T01:57:16.142Z,10.37
2019-05-11T01:59:44.607Z,10.70
2019-05-11T02:02:13.044Z,9.83
2019-05-11T02:04:41.573Z,9.80
2019-05-11T02:07:09.979Z,10.40
2019-05-11T02:09:38.390Z,9.70
2019-05-11T02:12:06.796Z,10.70
2019-05-11T02:14:35.201Z,10.53
2019-05-11T02:17:03.630Z,10.77
2019-05-11T02:19:32.048Z,10.70
2019-05-11T02:22:00.445Z,10.57
2019-05-11T02:24:28.855Z,10.53
2019-05-11T02:26:57.253Z,10.47
2019-05-11T02:29:25.667Z,11.70
2019-05-11T02:31:54.070Z,11.60
2019-05-11T02:34:22.475Z,10.97
2019-05-11T02:36:50.892Z,11.60
2019-05-11T02:39:19.306Z,10.80
2019-05-11T02:41:47.730Z,10.50
2019-05-11T02:44:16.201Z,10.80
2019-05-11T02:46:44.671Z,10.23
2019-05-11T02:49:13.088Z,10.23
2019-05-11T02:51:42.324Z,10.57
2019-05-11T02:54:11.375Z,11.07
2019-05-11T02:56:39.779Z,10.70
2019-05-11T02:59:08.184Z,11.70
2019-05-11T03:01:36.621Z,12.00
2019-05-11T03:04:05.016Z,10.97
2019-05-11T03:06:33.432Z,12.20
2019-05-11T03:09:01.833Z,12.20
2019-05-11T03:11:30.230Z,12.63
2019-05-11T03:13:58.746Z,12.20
2019-05-11T03:16:27.226Z,10.80
2019-05-11T03:18:55.649Z,11.67
2019-05-11T03:21:24.058Z,13.73
2019-05-11T03:23:52.703Z,11.90
2019-05-11T03:26:21.587Z,12.03
2019-05-11T03:28:50.005Z,11.90
2019-05-11T03:31:18.445Z,12.83
2019-05-11T03:33:47.025Z,12.37
2019-05-11T03:36:15.477Z,13.00
2019-05-11T03:38:43.900Z,11.63
2019-05-11T03:41:12.386Z,12.60
2019-05-11T03:43:40.803Z,11.50
2019-05-11T03:46:09.206Z,11.73
2019-05-11T03:48:37.624Z,11.77
2019-05-11T03:51:06.028Z,11.57
2019-05-11T03:53:34.433Z,12.00
2019-05-11T03:56:02.849Z,12.73
2019-05-11T03:58:31.257Z,11.70
2019-05-11T04:00:59.667Z,11.40
2019-05-11T04:03:28.070Z,12.37
2019-05-11T04:05:56.482Z,12.07
2019-05-11T04:08:24.980Z,11.00
2019-05-11T04:10:53.450Z,12.60
2019-05-11T04:13:21.863Z,13.20
2019-05-11T04:15:50.269Z,13.50
2019-05-11T04:18:18.672Z,12.77
2019-05-11T04:20:47.084Z,13.90
2019-05-11T04:23:15.493Z,12.63
2019-05-11T04:25:44.177Z,13.87
2019-05-11T04:28:12.581Z,13.30
2019-05-11T04:30:40.984Z,12.50
2019-05-11T04:33:09.398Z,14.27
2019-05-11T04:35:37.815Z,13.43
2019-05-11T04:38:06.408Z,13.17
2019-05-11T04:40:34.821Z,13.50
2019-05-11T04:43:03.226Z,13.80
2019-05-11T04:45:31.697Z,13.57
2019-05-11T04:48:00.095Z,13.87
2019-05-11T04:50:28.506Z,12.90
2019-05-11T04:52:56.911Z,12.50
2019-05-11T04:55:25.387Z,12.83
2019-05-11T04:57:53.802Z,13.57
2019-05-11T05:00:22.484Z,15.13
2019-05-11T05:02:50.912Z,13.03
2019-05-11T05:05:19.406Z,14.37
2019-05-11T05:07:50.340Z,13.37
2019-05-11T05:10:20.021Z,14.90
2019-05-11T05:12:51.324Z,16.57
2019-05-11T05:15:18.220Z,13.43
2019-05-11T05:17:46.627Z,13.03
2019-05-11T05:20:16.402Z,14.90
2019-05-11T05:22:44.807Z,12.70
2019-05-11T05:25:13.236Z,15.27
2019-05-11T05:27:41.637Z,14.00
2019-05-11T05:30:10.738Z,15.17
2019-05-11T05:32:39.178Z,12.07
2019-05-11T05:35:07.750Z,11.00
2019-05-11T05:37:36.471Z,10.83
2019-05-11T05:40:05.510Z,10.43
2019-05-11T05:42:33.918Z,11.67
2019-05-11T05:45:02.340Z,11.30
2019-05-11T05:47:30.746Z,13.60
2019-05-11T05:49:59.184Z,11.77
2019-05-11T05:52:27.678Z,13.40
2019-05-11T05:54:56.099Z,12.10
2019-05-11T05:57:24.525Z,13.30
2019-05-11T05:59:53.041Z,10.83
2019-05-11T06:02:21.452Z,11.27
2019-05-11T06:04:49.876Z,13.60
2019-05-11T06:07:18.282Z,13.77
2019-05-11T06:09:46.722Z,11.20
2019-05-11T06:12:15.123Z,12.97
2019-05-11T06:14:43.534Z,10.57
2019-05-11T06:17:12.004Z,11.50
2019-05-11T06:19:40.418Z,10.73
2019-05-11T06:22:08.825Z,10.30
2019-05-11T06:24:37.239Z,12.57
2019-05-11T06:27:05.652Z,13.90
2019-05-11T06:29:34.073Z,10.73
2019-05-11T06:32:02.501Z,10.63
2019-05-11T06:34:30.929Z,12.20
2019-05-11T06:36:59.347Z,11.13
2019-05-11T06:39:28.078Z,10.50
2019-05-11T06:41:56.489Z,11.53
2019-05-11T06:44:25.090Z,16.27
2019-05-11T06:46:53.493Z,13.57
2019-05-11T06:49:21.906Z,13.10
2019-05-11T06:51:50.327Z,12.20
2019-05-11T06:54:18.749Z,15.47
2019-05-11T06:56:47.166Z,14.53
2019-05-11T06:59:15.582Z,14.53
2019-05-11T07:01:44.057Z,14.47
2019-05-11T07:04:12.469Z,15.20
2019-05-11T07:06:40.948Z,16.63
2019-05-11T07:09:09.702Z,14.60
2019-05-11T07:11:38.170Z,18.73
2019-05-11T07:14:20.077Z,16.77
2019-05-11T07:16:37.034Z,17.03
2019-05-11T07:19:05.449Z,16.20
2019-05-11T07:21:33.992Z,15.90
2019-05-11T07:24:02.398Z,17.70
2019-05-11T07:26:30.859Z,15.33
2019-05-11T07:28:59.269Z,14.90
2019-05-11T07:31:27.719Z,15.57
2019-05-11T07:33:58.490Z,13.60
2019-05-11T07:36:28.248Z,14.40
2019-05-11T07:38:58.055Z,13.63
2019-05-11T07:41:28.134Z,11.73
2019-05-11T07:43:58.912Z,13.17
2019-05-11T07:46:28.862Z,12.63
2019-05-11T07:48:58.418Z,11.70
2019-05-11T07:51:28.815Z,12.13
2019-05-11T07:53:57.882Z,12.97
2019-05-11T07:56:28.531Z,11.73
2019-05-11T07:58:58.107Z,10.47
2019-05-11T08:01:28.128Z,11.07
2019-05-11T08:03:58.564Z,10.93
2019-05-11T08:06:30.763Z,10.13
2019-05-11T08:09:09.564Z,10.30
2019-05-11T08:11:38.926Z,10.47
2019-05-11T08:14:12.835Z,9.13
2019-05-11T08:16:44.706Z,8.90
2019-05-11T08:19:28.294Z,7.03
2019-05-11T08:21:59.886Z,6.70
2019-05-11T08:24:30.909Z,6.60
2019-05-11T08:27:08.335Z,6.00
2019-05-11T08:29:31.200Z,7.10
2019-05-11T08:32:08.074Z,6.93
2019-05-11T08:34:42.316Z,8.10
2019-05-11T08:37:19.000Z,7.00
2019-05-11T08:39:54.487Z,6.83
2019-05-11T08:42:37.767Z,6.27
2019-05-11T08:45:23.670Z,6.73
2019-05-11T08:47:51.451Z,5.30
2019-05-11T08:50:28.382Z,7.00
2019-05-11T08:53:02.980Z,4.77
2019-05-11T08:55:33.987Z,8.23
2019-05-11T08:58:02.394Z,5.83
2019-05-11T09:00:30.799Z,5.60
2019-05-11T09:02:59.215Z,3.80
2019-05-11T09:05:28.180Z,3.43
2019-05-11T09:07:57.710Z,3.90
2019-05-11T09:10:28.068Z,4.07
2019-05-11T09:12:58.876Z,4.40
2019-05-11T09:15:36.389Z,4.43
2019-05-11T09:17:57.862Z,3.40
2019-05-11T09:20:28.357Z,3.10
2019-05-11T09:22:58.809Z,3.33
2019-05-11T09:25:27.762Z,4.00
2019-05-11T09:27:58.502Z,4.90
2019-05-11T09:30:28.662Z,3.70
2019-05-11T09:32:58.150Z,3.63
2019-05-11T09:35:29.010Z,4.73
2019-05-11T09:37:58.752Z,5.03
2019-05-11T09:40:28.340Z,8.43
2019-05-11T09:42:58.528Z,5.10
2019-05-11T09:45:27.790Z,6.20
2019-05-11T09:47:58.267Z,3.43
2019-05-11T09:50:28.416Z,2.67
2019-05-11T09:52:58.107Z,3.03
2019-05-11T09:55:28.296Z,4.13
2019-05-11T09:57:57.955Z,3.30
2019-05-11T10:00:28.265Z,6.93
2019-05-11T10:02:57.665Z,5.47
2019-05-11T10:05:28.447Z,3.97
2019-05-11T10:07:58.716Z,3.08
2019-05-11T10:10:28.852Z,3.77
2019-05-11T10:12:58.743Z,2.02
2019-05-11T10:15:27.974Z,4.37
2019-05-11T10:17:58.212Z,2.40
2019-05-11T10:20:28.663Z,1.55
2019-05-11T10:22:57.990Z,2.10
2019-05-11T10:25:28.732Z,3.30
2019-05-11T10:27:57.980Z,2.83
2019-05-11T10:30:27.992Z,1.50
2019-05-11T10:32:57.795Z,2.72
2019-05-11T10:35:28.195Z,1.98
2019-05-11T10:37:58.274Z,2.17
2019-05-11T10:40:28.116Z,1.83
2019-05-11T10:42:59.001Z,2.13
2019-05-11T10:45:28.472Z,2.53
2019-05-11T10:48:00.665Z,1.17
2019-05-11T10:50:28.787Z,2.50
2019-05-11T10:52:59.012Z,1.13
2019-05-11T10:55:28.041Z,1.27
2019-05-11T10:57:58.062Z,1.70
2019-05-11T11:00:28.315Z,3.87
2019-05-11T11:02:58.126Z,4.17
2019-05-11T11:05:27.941Z,1.70
2019-05-11T11:07:58.669Z,2.57
2019-05-11T11:10:28.631Z,2.83
2019-05-11T11:12:57.812Z,1.90
2019-05-11T11:15:28.639Z,4.33
2019-05-11T11:17:57.884Z,4.20
2019-05-11T11:20:28.050Z,4.50
2019-05-11T11:22:58.359Z,1.27
2019-05-11T11:25:28.437Z,3.43
2019-05-11T11:27:57.817Z,1.13
2019-05-11T11:30:28.472Z,1.47
2019-05-11T11:32:58.781Z,1.27
2019-05-11T11:35:27.886Z,3.53
2019-05-11T11:37:58.515Z,2.10
2019-05-11T11:40:28.176Z,1.97
2019-05-11T11:42:58.140Z,1.27
2019-05-11T11:45:28.702Z,1.90
2019-05-11T11:47:58.045Z,2.60
2019-05-11T11:50:28.363Z,3.00
2019-05-11T11:52:57.848Z,2.40
2019-05-11T11:55:28.792Z,4.63
2019-05-11T11:57:58.673Z,3.63
2019-05-11T12:00:28.830Z,3.70
2019-05-11T12:04:38.698Z,1.50
2019-05-11T12:07:08.489Z,1.70
2019-05-11T12:09:37.767Z,2.10
2019-05-11T12:12:07.979Z,1.30
2019-05-11T12:14:38.360Z,2.70
2019-05-11T12:17:08.686Z,2.67
2019-05-11T12:19:38.263Z,2.23
2019-05-11T12:22:08.646Z,1.50
2019-05-11T12:24:37.538Z,5.60
2019-05-11T12:27:07.678Z,3.07
2019-05-11T12:29:38.407Z,1.30
2019-05-11T12:32:08.307Z,1.70
2019-05-11T12:34:37.530Z,2.03
2019-05-11T12:37:08.385Z,1.17
2019-05-11T12:39:38.506Z,1.50
2019-05-11T12:42:08.509Z,2.90
2019-05-11T12:44:38.589Z,0.93
2019-05-11T12:47:20.666Z,2.13
2019-05-11T12:49:38.940Z,2.70
2019-05-11T12:52:07.691Z,8.73
2019-05-11T12:54:38.382Z,1.10
2019-05-11T12:57:07.909Z,1.03
2019-05-11T12:59:38.151Z,1.00
2019-05-11T13:02:08.177Z,1.27
2019-05-11T13:04:38.483Z,2.60
2019-05-11T13:07:08.723Z,2.17
2019-05-11T13:09:38.035Z,4.60
2019-05-11T13:12:08.023Z,5.03
2019-05-11T13:14:38.136Z,1.57
2019-05-11T13:17:07.853Z,1.23
2019-05-11T13:19:38.461Z,1.03
2019-05-11T13:22:07.930Z,3.10
2019-05-11T13:24:38.399Z,1.20
2019-05-11T13:27:08.338Z,2.50
2019-05-11T13:29:37.878Z,1.10
2019-05-11T13:32:07.848Z,1.60
2019-05-11T13:34:38.588Z,1.53
2019-05-11T13:37:08.081Z,2.87
2019-05-11T13:39:37.861Z,1.53
2019-05-11T13:42:08.220Z,1.00
2019-05-11T13:44:38.509Z,1.60
2019-05-11T13:47:08.545Z,2.70
2019-05-11T13:49:37.778Z,1.27
2019-05-11T13:52:08.444Z,1.33
2019-05-11T13:54:37.572Z,3.50
2019-05-11T13:57:08.016Z,3.40
2019-05-11T13:59:38.298Z,1.57
2019-05-11T14:02:10.657Z,2.90
2019-05-11T14:04:38.685Z,2.87
2019-05-11T14:07:08.114Z,1.07
2019-05-11T14:09:38.031Z,1.00
2019-05-11T14:12:07.748Z,2.50
2019-05-11T14:14:37.741Z,1.27
2019-05-11T14:17:08.307Z,2.10
2019-05-11T14:19:38.516Z,1.90
2019-05-11T14:22:12.229Z,0.93
2019-05-11T14:24:40.857Z,1.33
2019-05-11T14:27:09.516Z,1.23
2019-05-11T14:29:38.659Z,3.87
2019-05-11T14:32:08.541Z,2.00
2019-05-11T14:34:38.738Z,0.90
2019-05-11T14:37:08.838Z,1.53
2019-05-11T14:39:38.326Z,1.67
2019-05-11T14:42:07.703Z,0.57
2019-05-11T14:44:37.734Z,3.33
2019-05-11T14:47:08.358Z,0.63
2019-05-11T14:49:37.823Z,1.73
2019-05-11T14:52:08.292Z,1.07
2019-05-11T14:54:38.246Z,1.73
2019-05-11T14:57:08.060Z,2.53
2019-05-11T14:59:37.739Z,3.97
2019-05-11T15:02:23.966Z,7.00
2019-05-11T15:04:52.382Z,3.80
2019-05-11T15:07:20.840Z,2.47
2019-05-11T15:09:49.273Z,1.70
2019-05-11T15:12:18.241Z,0.93
2019-05-11T15:14:48.550Z,3.13
2019-05-11T15:17:18.585Z,1.80
2019-05-11T15:19:48.821Z,1.77
2019-05-11T15:22:18.115Z,2.93
2019-05-11T15:24:48.405Z,3.10
2019-05-11T15:27:18.410Z,3.00
2019-05-11T15:29:47.887Z,1.23
2019-05-11T15:32:17.934Z,2.00
2019-05-11T15:34:48.573Z,3.23
2019-05-11T15:37:17.766Z,0.97
2019-05-11T15:39:48.327Z,0.90
2019-05-11T15:42:19.642Z,2.93
2019-05-11T15:44:48.415Z,1.30
2019-05-11T15:47:16.985Z,1.67
2019-05-11T15:49:45.698Z,1.00
2019-05-11T15:52:14.229Z,0.77
2019-05-11T15:54:42.644Z,0.77
2019-05-11T15:57:11.075Z,0.80
2019-05-11T15:59:39.554Z,1.80
2019-05-11T16:02:08.626Z,3.50
2019-05-11T16:04:38.167Z,0.97
2019-05-11T16:07:08.241Z,2.30
2019-05-11T16:09:38.060Z,2.43
2019-05-11T16:12:06.752Z,0.80
2019-05-11T16:14:35.173Z,1.10
2019-05-11T16:17:03.614Z,1.47
2019-05-11T16:19:32.024Z,2.43
2019-05-11T16:22:00.434Z,6.10
2019-05-11T16:24:28.943Z,3.10
2019-05-11T16:26:58.271Z,2.73
2019-05-11T16:29:28.000Z,5.67
2019-05-11T16:31:57.838Z,5.20
2019-05-11T16:34:27.771Z,4.10
2019-05-11T16:36:56.482Z,3.40
2019-05-11T16:39:24.889Z,5.80
2019-05-11T16:41:53.339Z,4.57
2019-05-11T16:44:21.798Z,2.40
2019-05-11T16:46:51.039Z,1.90
2019-05-11T16:49:28.481Z,3.40
2019-05-11T16:51:49.925Z,3.90
2019-05-11T16:54:18.387Z,4.90
2019-05-11T16:56:48.674Z,2.73
2019-05-11T16:59:18.238Z,3.50
2019-05-11T17:01:48.278Z,3.20
2019-05-11T17:04:16.814Z,6.13
2019-05-11T17:06:45.227Z,2.90
2019-05-11T17:09:13.669Z,2.20
2019-05-11T17:11:42.100Z,4.80
2019-05-11T17:14:10.491Z,4.73
2019-05-11T17:16:38.947Z,7.37
2019-05-11T17:19:08.050Z,3.13
2019-05-11T17:21:38.117Z,9.17
2019-05-11T17:24:06.833Z,1.77
2019-05-11T17:26:35.237Z,1.40
2019-05-11T17:29:03.647Z,2.27
2019-05-11T17:31:32.051Z,3.83
2019-05-11T17:34:00.539Z,1.50
2019-05-11T17:36:28.937Z,1.70
2019-05-11T17:38:58.258Z,1.57
2019-05-11T17:41:27.950Z,2.10
2019-05-11T17:43:58.362Z,2.53
2019-05-11T17:46:27.861Z,3.50
2019-05-11T17:48:56.485Z,3.73
2019-05-11T17:51:25.196Z,3.13
2019-05-11T17:53:53.824Z,2.43
2019-05-11T17:56:22.225Z,3.40
2019-05-11T17:58:50.658Z,3.57
2019-05-11T18:01:19.358Z,3.80
2019-05-11T18:03:47.954Z,2.80
2019-05-11T18:07:58.013Z,1.73
2019-05-11T18:10:28.322Z,3.43
2019-05-11T18:12:57.817Z,3.03
2019-05-11T18:15:26.489Z,2.13
2019-05-11T18:17:54.897Z,1.97
2019-05-11T18:20:23.319Z,2.97
2019-05-11T18:22:51.741Z,5.10
2019-05-11T18:25:20.316Z,2.80
2019-05-11T18:27:48.957Z,2.63
2019-05-11T18:30:22.146Z,3.23
2019-05-11T18:33:08.360Z,4.37
2019-05-11T18:35:43.022Z,1.97
2019-05-11T18:38:14.747Z,1.87
2019-05-11T18:40:52.077Z,1.60
2019-05-11T18:43:19.296Z,1.53
2019-05-11T18:45:48.824Z,3.40
2019-05-11T18:48:24.448Z,2.20
2019-05-11T18:50:56.805Z,1.63
2019-05-11T18:53:28.604Z,1.63
2019-05-11T18:55:58.977Z,0.93
2019-05-11T18:58:31.097Z,0.93
2019-05-11T19:01:08.204Z,1.00
2019-05-11T19:03:40.019Z,1.30
2019-05-11T19:06:18.185Z,1.30
2019-05-11T19:08:47.856Z,1.60
2019-05-11T19:11:18.273Z,1.17
2019-05-11T19:13:54.309Z,0.93
2019-05-11T19:16:32.916Z,2.27
2019-05-11T19:19:11.721Z,2.63
2019-05-11T19:21:41.936Z,1.47
2019-05-11T19:24:13.226Z,2.00
2019-05-11T19:26:41.866Z,1.40
2019-05-11T19:29:17.947Z,1.10
2019-05-11T19:31:47.802Z,1.20
2019-05-11T19:34:24.050Z,1.27
2019-05-11T19:37:11.135Z,1.10
2019-05-11T19:39:43.030Z,1.03
2019-05-11T19:42:20.673Z,2.10
2019-05-11T19:44:53.171Z,1.33
2019-05-11T19:47:25.009Z,1.23
2019-05-11T19:49:58.266Z,1.00
2019-05-11T19:52:30.590Z,0.97
2019-05-11T19:55:00.821Z,1.43
2019-05-11T19:57:31.389Z,4.93
2019-05-11T20:00:00.912Z,1.00
2019-05-11T20:02:31.263Z,1.70
2019-05-11T20:05:02.202Z,4.53
2019-05-11T20:07:32.373Z,6.40
2019-05-11T20:10:01.189Z,2.23
2019-05-11T20:12:34.971Z,1.30
2019-05-11T20:15:04.658Z,0.90
2019-05-11T20:17:33.572Z,2.30
2019-05-11T20:20:08.671Z,1.37
2019-05-11T20:22:38.864Z,1.27
2019-05-11T20:25:13.591Z,1.33
2019-05-11T20:27:42.374Z,2.43
2019-05-11T20:30:17.976Z,1.20
2019-05-11T20:32:48.377Z,1.63
2019-05-11T20:35:20.511Z,1.40
2019-05-11T20:37:49.333Z,1.30
2019-05-11T20:40:18.612Z,1.97
2019-05-11T20:42:48.533Z,3.90
2019-05-11T20:45:19.082Z,2.80
2019-05-11T20:47:48.693Z,2.40
2019-05-11T20:50:18.407Z,2.40
2019-05-11T20:52:48.073Z,2.10
2019-05-11T20:55:18.185Z,1.73
2019-05-11T20:57:48.230Z,3.60
2019-05-11T21:00:18.656Z,1.80
2019-05-11T21:02:49.250Z,2.30
2019-05-11T21:05:18.445Z,1.60
2019-05-11T21:07:47.043Z,1.30
2019-05-11T21:10:16.562Z,1.33
2019-05-11T21:12:45.076Z,2.33
2019-05-11T21:15:14.285Z,1.60
2019-05-11T21:17:43.756Z,1.40
2019-05-11T21:20:12.949Z,1.93
2019-05-11T21:22:41.349Z,1.70
2019-05-11T21:25:11.087Z,1.70
2019-05-11T21:27:39.493Z,5.20
2019-05-11T21:30:10.041Z,2.40
2019-05-11T21:32:39.598Z,2.93
2019-05-11T21:35:09.033Z,1.50
2019-05-11T21:37:38.747Z,1.83
2019-05-11T21:40:08.923Z,1.63
2019-05-11T21:42:38.900Z,1.90
2019-05-11T21:45:09.775Z,2.23
2019-05-11T21:47:39.321Z,1.30
2019-05-11T21:50:09.334Z,1.87
2019-05-11T21:52:38.576Z,1.60
2019-05-11T21:55:09.334Z,2.00
2019-05-11T21:57:38.516Z,1.87
2019-05-11T22:00:09.219Z,2.10
2019-05-11T22:02:38.730Z,2.10
2019-05-11T22:05:09.147Z,2.80
2019-05-11T22:07:38.717Z,2.23
2019-05-11T22:10:09.342Z,2.03
2019-05-11T22:12:39.007Z,2.10
2019-05-11T22:15:09.713Z,1.93
2019-05-11T22:17:39.545Z,2.27
2019-05-11T22:20:09.358Z,2.00
2019-05-11T22:22:38.869Z,1.83
2019-05-11T22:25:08.770Z,2.47
2019-05-11T22:27:38.737Z,1.70
2019-05-11T22:30:11.161Z,4.47
2019-05-11T22:32:39.562Z,2.53
2019-05-11T22:35:08.401Z,1.70
2019-05-11T22:37:38.633Z,2.27
2019-05-11T22:40:08.425Z,3.43
2019-05-11T22:42:37.665Z,2.27
2019-05-11T22:45:08.477Z,2.30
2019-05-11T22:47:39.151Z,2.57
2019-05-11T22:50:08.895Z,2.30
2019-05-11T22:52:40.168Z,2.53
2019-05-11T22:55:11.083Z,3.00
2019-05-11T22:57:38.307Z,3.10
2019-05-11T23:00:10.965Z,2.37
2019-05-11T23:02:39.361Z,4.13
2019-05-11T23:05:09.019Z,1.83
2019-05-11T23:07:41.272Z,3.93
2019-05-11T23:10:09.465Z,2.67
2019-05-11T23:12:38.502Z,2.80
2019-05-11T23:15:14.705Z,2.27
2019-05-11T23:17:43.163Z,2.77
2019-05-11T23:20:12.006Z,9.13
2019-05-11T23:22:58.022Z,4.53
2019-05-11T23:25:19.760Z,3.63
2019-05-11T23:27:48.820Z,2.40
2019-05-11T23:30:20.042Z,3.57
2019-05-11T23:32:49.404Z,4.20
2019-05-11T23:35:18.757Z,3.47
2019-05-11T23:37:49.669Z,3.67
2019-05-11T23:40:18.900Z,5.83
2019-05-11T23:42:48.914Z,2.83
2019-05-11T23:45:18.814Z,3.83
2019-05-11T23:47:48.810Z,3.53
2019-05-11T23:50:19.269Z,5.50
2019-05-11T23:52:53.209Z,4.27
2019-05-11T23:55:19.265Z,5.30
2019-05-11T23:57:48.778Z,5.10
